Time;durP1;ratioP1;P1;durP2;ratioP2;P2;SDS_P1;SDS_P2;PMS_P1;PMS_P2;Temp;Humidity;BMP_temperature;BMP_pressure;BME280_temperature;BME280_humidity;BME280_pressure;Samples;Min_cycle;Max_cycle;Signal;HPM_P1;HPM_P2
2021/05/30 00:00:21;;;;;;;1.70;0.90;;;11.60;75.70;;;;;;5080055;28;20449;-79
2021/05/30 00:02:47;;;;;;;1.30;1.00;;;11.60;75.80;;;;;;5096765;28;20051;-79
2021/05/30 00:05:13;;;;;;;0.93;0.70;;;11.40;75.80;;;;;;5096825;28;20180;-79
2021/05/30 00:07:39;;;;;;;1.55;0.90;;;11.50;75.90;;;;;;5097398;28;20486;-79
2021/05/30 00:10:06;;;;;;;0.90;0.80;;;11.40;75.90;;;;;;5097236;28;20126;-80
2021/05/30 00:12:34;;;;;;;0.80;0.80;;;11.20;75.90;;;;;;5114832;28;20039;-80
2021/05/30 00:15:00;;;;;;;0.90;0.80;;;11.20;76.00;;;;;;5114752;28;20040;-79
2021/05/30 00:17:26;;;;;;;1.70;0.90;;;11.10;76.00;;;;;;5096969;28;20042;-79
2021/05/30 00:19:51;;;;;;;0.80;0.80;;;11.10;76.10;;;;;;5080517;28;20039;-79
2021/05/30 00:22:17;;;;;;;1.15;0.93;;;11.10;76.20;;;;;;5096076;28;20558;-79
2021/05/30 00:24:43;;;;;;;1.00;0.77;;;11.10;76.30;;;;;;5078573;28;20040;-79
2021/05/30 00:27:09;;;;;;;1.83;1.10;;;11.00;76.30;;;;;;5080258;28;20092;-79
2021/05/30 00:29:35;;;;;;;0.80;0.80;;;11.00;76.40;;;;;;5079515;28;20092;-79
2021/05/30 00:32:01;;;;;;;1.30;0.73;;;11.00;76.50;;;;;;5096416;28;20048;-80
2021/05/30 00:34:26;;;;;;;1.42;0.65;;;11.00;76.50;;;;;;5062812;28;20056;-79
2021/05/30 00:36:52;;;;;;;1.40;0.93;;;10.90;76.50;;;;;;5114473;28;20070;-79
2021/05/30 00:39:18;;;;;;;1.42;0.98;;;10.90;76.60;;;;;;5114992;28;20067;-79
2021/05/30 00:41:44;;;;;;;1.25;1.00;;;10.80;76.60;;;;;;5079281;28;20028;-79
2021/05/30 00:44:28;;;;;;;0.80;0.75;;;10.70;76.70;;;;;;5114317;28;20036;-78
2021/05/30 00:46:54;;;;;;;0.93;0.77;;;10.70;76.80;;;;;;5096905;28;20039;-79
2021/05/30 00:49:21;;;;;;;1.65;0.80;;;10.70;76.80;;;;;;5095992;28;20056;-79
2021/05/30 00:51:47;;;;;;;1.08;0.80;;;10.50;76.70;;;;;;5062496;28;20481;-79
2021/05/30 00:54:14;;;;;;;1.15;0.85;;;10.60;76.80;;;;;;5114382;28;20118;-79
2021/05/30 00:56:40;;;;;;;1.27;0.70;;;10.60;76.90;;;;;;5079056;28;20032;-78
2021/05/30 00:59:08;;;;;;;1.55;0.85;;;10.50;76.90;;;;;;5096055;28;20051;-79
2021/05/30 01:01:34;;;;;;;1.15;0.75;;;10.50;77.00;;;;;;5062482;28;20130;-78
2021/05/30 01:04:00;;;;;;;1.30;1.00;;;10.50;77.00;;;;;;5114181;28;20039;-78
2021/05/30 01:06:28;;;;;;;0.80;0.75;;;10.50;77.00;;;;;;5094362;28;20043;-78
2021/05/30 01:08:54;;;;;;;1.17;0.80;;;10.40;77.00;;;;;;5095425;28;20071;-78
2021/05/30 01:11:23;;;;;;;2.08;0.90;;;10.50;77.20;;;;;;5078948;28;20063;-78
2021/05/30 01:13:53;;;;;;;1.23;0.90;;;10.40;77.20;;;;;;5095503;28;20046;-79
2021/05/30 01:16:20;;;;;;;0.70;0.70;;;10.30;77.20;;;;;;5095629;28;20043;-78
2021/05/30 01:18:48;;;;;;;1.10;0.85;;;10.40;77.20;;;;;;5077579;28;20044;-78
2021/05/30 01:21:15;;;;;;;0.77;0.73;;;10.40;77.20;;;;;;5110204;28;20092;-79
2021/05/30 01:23:41;;;;;;;1.83;0.80;;;10.30;77.30;;;;;;5096343;28;20027;-79
2021/05/30 01:26:07;;;;;;;1.45;0.95;;;10.30;77.30;;;;;;5061306;28;20044;-77
2021/05/30 01:28:33;;;;;;;1.00;0.90;;;10.20;77.40;;;;;;5094469;28;20478;-78
2021/05/30 01:30:59;;;;;;;1.23;0.98;;;10.20;77.40;;;;;;5079354;28;20040;-78
2021/05/30 01:33:25;;;;;;;0.98;0.70;;;10.20;77.50;;;;;;5113981;28;20511;-78
2021/05/30 01:35:51;;;;;;;1.42;1.00;;;10.10;77.50;;;;;;5078635;28;20047;-78
2021/05/30 01:38:16;;;;;;;0.93;0.82;;;10.10;77.50;;;;;;5113614;28;20040;-78
2021/05/30 01:40:43;;;;;;;0.77;0.77;;;10.10;77.50;;;;;;5095174;28;20100;-78
2021/05/30 01:43:09;;;;;;;1.42;1.02;;;10.00;77.50;;;;;;5078332;28;20051;-78
2021/05/30 01:45:35;;;;;;;1.02;0.93;;;10.00;77.60;;;;;;5095123;28;20413;-79
2021/05/30 01:48:03;;;;;;;1.13;0.75;;;10.00;77.60;;;;;;5093407;28;20131;-78
2021/05/30 01:50:31;;;;;;;0.95;0.70;;;10.00;77.70;;;;;;5078053;28;20039;-77
2021/05/30 01:53:01;;;;;;;1.00;0.80;;;10.00;77.70;;;;;;5077872;28;20035;-78
2021/05/30 01:55:30;;;;;;;1.48;1.02;;;9.90;77.70;;;;;;5094308;28;20501;-79
2021/05/30 01:57:58;;;;;;;0.57;0.57;;;9.90;77.80;;;;;;5079116;28;20055;-78
2021/05/30 02:00:26;;;;;;;1.10;0.82;;;9.80;77.80;;;;;;5077768;28;20428;-78
2021/05/30 02:02:55;;;;;;;0.98;0.80;;;9.90;77.90;;;;;;5077950;28;20040;-79
2021/05/30 02:05:22;;;;;;;0.93;0.80;;;9.80;77.80;;;;;;5093340;28;20371;-78
2021/05/30 02:07:49;;;;;;;1.23;0.73;;;9.80;77.90;;;;;;5076320;28;20044;-78
2021/05/30 02:10:17;;;;;;;0.75;0.70;;;9.80;77.90;;;;;;5113046;28;20501;-78
2021/05/30 02:12:47;;;;;;;1.33;0.88;;;9.80;77.90;;;;;;5082696;28;20133;-78
2021/05/30 02:15:15;;;;;;;1.52;0.90;;;9.80;77.90;;;;;;5097375;28;20039;-77
2021/05/30 02:17:41;;;;;;;0.68;0.68;;;9.70;77.90;;;;;;5078185;28;20036;-79
2021/05/30 02:20:09;;;;;;;0.50;0.50;;;9.60;78.50;;;;;;5061287;28;20176;-78
2021/05/30 02:22:35;;;;;;;3.10;0.73;;;9.70;77.90;;;;;;5092820;28;20094;-79
2021/05/30 02:25:00;;;;;;;1.13;0.90;;;9.70;78.00;;;;;;5094799;28;20036;-78
2021/05/30 02:27:27;;;;;;;0.60;0.60;;;9.70;78.00;;;;;;5093996;28;20436;-79
2021/05/30 02:29:52;;;;;;;1.60;0.75;;;9.60;78.00;;;;;;5094719;28;20032;-79
2021/05/30 02:32:18;;;;;;;0.95;0.85;;;9.70;78.10;;;;;;5112992;28;20480;-79
2021/05/30 02:34:44;;;;;;;0.85;0.70;;;9.60;78.00;;;;;;5094411;28;20047;-79
2021/05/30 02:37:14;;;;;;;1.20;0.95;;;9.60;78.00;;;;;;5112674;28;20040;-78
2021/05/30 02:39:40;;;;;;;0.88;0.77;;;9.60;78.00;;;;;;5112570;28;20435;-79
2021/05/30 02:42:07;;;;;;;1.17;0.93;;;9.60;78.00;;;;;;5094779;28;20044;-79
2021/05/30 02:44:39;;;;;;;1.70;0.90;;;9.60;78.10;;;;;;5077165;28;20445;-79
2021/05/30 02:47:05;;;;;;;1.08;0.77;;;9.60;78.10;;;;;;5094879;28;20039;-76
2021/05/30 02:49:32;;;;;;;1.05;0.70;;;9.50;78.10;;;;;;5094280;28;20062;-78
2021/05/30 02:52:00;;;;;;;0.88;0.70;;;9.50;78.00;;;;;;5112410;28;20453;-79
2021/05/30 02:54:26;;;;;;;1.63;0.90;;;9.50;78.00;;;;;;5094295;28;20104;-79
2021/05/30 02:56:52;;;;;;;1.70;0.85;;;9.50;78.00;;;;;;5092359;28;20036;-79
2021/05/30 02:59:17;;;;;;;1.13;0.75;;;9.50;78.10;;;;;;5077344;28;20066;-79
2021/05/30 03:01:43;;;;;;;1.38;0.90;;;9.50;78.10;;;;;;5094818;28;20118;-78
2021/05/30 03:04:09;;;;;;;0.73;0.70;;;9.50;78.20;;;;;;5075493;28;20040;-78
2021/05/30 03:06:35;;;;;;;1.10;0.80;;;9.40;78.10;;;;;;5094298;28;20496;-78
2021/05/30 03:09:01;;;;;;;1.00;0.80;;;9.30;78.20;;;;;;5094067;28;20043;-79
2021/05/30 03:11:27;;;;;;;0.60;0.60;;;9.30;78.20;;;;;;5093994;28;20051;-78
2021/05/30 03:13:53;;;;;;;1.20;0.95;;;9.40;78.30;;;;;;5093963;28;20468;-79
2021/05/30 03:16:19;;;;;;;1.02;0.80;;;9.40;78.30;;;;;;5076626;28;20382;-79
2021/05/30 03:18:45;;;;;;;0.60;0.50;;;9.30;78.20;;;;;;5093982;28;20097;-79
2021/05/30 03:21:13;;;;;;;1.02;0.70;;;9.40;78.30;;;;;;5058516;28;20098;-79
2021/05/30 03:23:39;;;;;;;1.52;0.82;;;9.30;78.30;;;;;;5094080;28;20156;-79
2021/05/30 03:26:04;;;;;;;0.63;0.60;;;9.30;78.30;;;;;;5114337;28;20150;-79
2021/05/30 03:28:30;;;;;;;0.88;0.70;;;9.30;78.40;;;;;;5116339;28;20047;-79
2021/05/30 03:30:56;;;;;;;1.27;0.80;;;9.20;78.30;;;;;;5063944;28;20039;-79
2021/05/30 03:33:22;;;;;;;0.75;0.70;;;9.30;78.40;;;;;;5115516;28;20051;-79
2021/05/30 03:35:48;;;;;;;1.00;0.77;;;9.20;78.40;;;;;;5097332;28;20031;-78
2021/05/30 03:38:16;;;;;;;1.10;0.88;;;9.30;78.50;;;;;;5080201;28;20031;-78
2021/05/30 03:40:59;;;;;;;0.73;0.70;;;9.30;78.50;;;;;;5062262;28;20032;-79
2021/05/30 03:43:25;;;;;;;1.00;0.82;;;9.20;78.50;;;;;;5085513;28;20051;-79
2021/05/30 03:45:51;;;;;;;1.65;1.00;;;9.20;78.50;;;;;;5115314;28;20122;-79
2021/05/30 03:48:17;;;;;;;1.98;0.80;;;9.20;78.50;;;;;;5096983;28;20078;-79
2021/05/30 03:50:42;;;;;;;1.20;0.75;;;9.20;78.50;;;;;;5080258;28;20054;-80
2021/05/30 03:53:08;;;;;;;0.70;0.70;;;9.30;78.60;;;;;;5096394;28;20047;-80
2021/05/30 03:55:34;;;;;;;0.73;0.70;;;9.30;78.60;;;;;;5096176;28;20067;-80
2021/05/30 03:58:00;;;;;;;1.77;0.75;;;9.30;78.40;;;;;;5095246;28;20125;-79
2021/05/30 04:00:26;;;;;;;1.45;0.73;;;9.20;78.30;;;;;;5096637;28;20098;-80
2021/05/30 04:02:52;;;;;;;0.80;0.60;;;9.30;78.40;;;;;;5080279;28;20047;-80
2021/05/30 04:05:17;;;;;;;1.20;0.90;;;9.30;78.40;;;;;;5080550;28;20044;-79
2021/05/30 04:07:44;;;;;;;0.95;0.65;;;9.30;78.40;;;;;;5078137;28;20046;-80
2021/05/30 04:10:11;;;;;;;1.00;0.85;;;9.30;78.40;;;;;;5080693;28;20113;-81
2021/05/30 04:12:38;;;;;;;1.45;0.90;;;9.40;78.40;;;;;;5095981;28;20489;-80
2021/05/30 04:15:06;;;;;;;0.82;0.65;;;9.30;78.30;;;;;;5080106;28;20061;-80
2021/05/30 04:17:32;;;;;;;0.90;0.63;;;9.30;78.20;;;;;;5094138;28;20094;-80
2021/05/30 04:19:58;;;;;;;0.70;0.60;;;9.40;78.30;;;;;;5080362;28;20051;-79
2021/05/30 04:22:23;;;;;;;0.80;0.60;;;9.40;78.40;;;;;;5116001;28;20043;-80
2021/05/30 04:24:49;;;;;;;1.13;0.90;;;9.40;78.30;;;;;;5080490;28;20089;-79
2021/05/30 04:27:15;;;;;;;1.60;0.88;;;9.40;78.30;;;;;;5080757;28;20511;-79
2021/05/30 04:29:41;;;;;;;1.55;1.00;;;9.50;78.30;;;;;;5079415;28;20487;-79
2021/05/30 04:32:07;;;;;;;0.70;0.60;;;9.50;78.30;;;;;;5096851;28;20043;-79
2021/05/30 04:34:33;;;;;;;1.30;0.95;;;9.50;78.30;;;;;;5078161;28;20051;-79
2021/05/30 04:36:59;;;;;;;1.52;0.85;;;9.50;78.20;;;;;;5097192;28;20040;-78
2021/05/30 04:39:27;;;;;;;1.25;0.90;;;9.50;78.20;;;;;;5096248;28;20166;-81
2021/05/30 04:41:53;;;;;;;2.72;1.20;;;9.50;78.20;;;;;;5115026;28;20055;-80
2021/05/30 04:44:19;;;;;;;1.35;0.90;;;9.60;78.20;;;;;;5078166;28;20051;-79
2021/05/30 04:46:44;;;;;;;1.48;0.90;;;9.60;78.10;;;;;;5079607;28;20139;-79
2021/05/30 04:49:10;;;;;;;0.65;0.55;;;9.70;78.10;;;;;;5095769;28;20093;-80
2021/05/30 04:51:36;;;;;;;0.80;0.70;;;9.60;78.00;;;;;;5063272;28;20052;-80
2021/05/30 04:54:02;;;;;;;1.77;1.08;;;9.70;78.00;;;;;;5114568;28;20044;-79
2021/05/30 04:56:27;;;;;;;1.05;0.70;;;9.70;78.00;;;;;;5078660;28;20032;-79
2021/05/30 04:58:53;;;;;;;1.73;1.13;;;9.80;77.90;;;;;;5079777;28;20043;-79
2021/05/30 05:01:19;;;;;;;1.23;1.10;;;9.80;77.90;;;;;;5077564;28;20036;-80
2021/05/30 05:03:45;;;;;;;1.48;0.93;;;9.90;77.90;;;;;;5096325;28;20039;-79
2021/05/30 05:06:11;;;;;;;1.63;1.00;;;9.90;77.80;;;;;;5096431;28;20126;-80
2021/05/30 05:08:36;;;;;;;1.02;0.93;;;9.90;77.70;;;;;;5080401;28;20347;-79
2021/05/30 05:11:03;;;;;;;1.48;1.00;;;10.00;77.60;;;;;;5096704;28;20051;-79
2021/05/30 05:13:29;;;;;;;2.25;1.10;;;10.10;77.50;;;;;;5079456;28;20035;-79
2021/05/30 05:15:55;;;;;;;0.85;0.80;;;10.10;77.40;;;;;;5079205;28;20126;-80
2021/05/30 05:18:24;;;;;;;1.63;0.95;;;10.20;77.40;;;;;;5096838;28;20548;-80
2021/05/30 05:20:51;;;;;;;0.80;0.80;;;10.30;77.20;;;;;;5097176;28;20040;-80
2021/05/30 05:23:19;;;;;;;0.80;0.60;;;10.40;77.70;;;;;;5080550;28;20058;-80
2021/05/30 05:25:48;;;;;;;0.75;0.68;;;10.50;77.00;;;;;;5097919;28;20047;-80
2021/05/30 05:28:14;;;;;;;1.27;0.95;;;10.60;76.80;;;;;;5095941;28;20036;-78
2021/05/30 05:30:40;;;;;;;1.58;1.00;;;10.80;76.80;;;;;;5097991;28;20092;-79
2021/05/30 05:33:06;;;;;;;1.60;1.10;;;10.80;76.80;;;;;;5080110;28;20039;-79
2021/05/30 05:35:31;;;;;;;2.22;1.30;;;10.80;76.60;;;;;;5079877;28;20497;-79
2021/05/30 05:37:58;;;;;;;2.35;0.90;;;10.90;76.60;;;;;;5096968;28;20048;-79
2021/05/30 05:40:25;;;;;;;1.35;1.00;;;10.90;76.50;;;;;;5114288;28;20067;-79
2021/05/30 05:42:52;;;;;;;1.75;1.10;;;11.00;76.50;;;;;;5114010;28;20040;-79
2021/05/30 05:45:20;;;;;;;1.58;1.15;;;11.10;76.50;;;;;;5096070;28;20115;-78
2021/05/30 05:47:46;;;;;;;1.48;1.00;;;11.20;76.50;;;;;;5077637;28;20035;-79
2021/05/30 05:50:14;;;;;;;1.17;0.98;;;11.10;76.40;;;;;;5061470;28;20039;-80
2021/05/30 05:52:40;;;;;;;1.35;0.90;;;11.20;76.50;;;;;;5060810;28;20490;-80
2021/05/30 05:55:07;;;;;;;1.90;1.10;;;11.30;76.40;;;;;;5113567;28;20043;-80
2021/05/30 05:57:35;;;;;;;1.80;1.10;;;11.40;76.40;;;;;;5061611;28;20035;-79
2021/05/30 06:00:03;;;;;;;1.65;1.00;;;11.40;76.40;;;;;;5094553;28;20040;-80
2021/05/30 06:02:28;;;;;;;1.83;1.00;;;11.50;76.30;;;;;;5093710;28;20118;-80
2021/05/30 06:04:54;;;;;;;1.48;1.10;;;11.50;76.20;;;;;;5061534;28;20449;-80
2021/05/30 06:07:20;;;;;;;1.27;0.90;;;11.60;76.30;;;;;;5095340;28;20512;-80
2021/05/30 06:09:45;;;;;;;0.40;0.40;;;11.60;76.20;;;;;;5061892;28;20051;-81
2021/05/30 06:12:11;;;;;;;1.30;1.00;;;11.70;76.20;;;;;;5061909;28;20043;-80
2021/05/30 06:14:37;;;;;;;1.27;1.02;;;11.80;76.10;;;;;;5078226;28;20043;-79
2021/05/30 06:17:04;;;;;;;1.10;0.90;;;11.90;76.10;;;;;;5114407;28;20040;-80
2021/05/30 06:19:30;;;;;;;1.85;1.30;;;11.90;75.90;;;;;;5061286;28;20035;-80
2021/05/30 06:21:56;;;;;;;1.00;0.90;;;11.90;75.90;;;;;;5078604;28;20512;-80
2021/05/30 06:24:21;;;;;;;1.38;1.00;;;12.10;75.90;;;;;;5095146;28;20047;-79
2021/05/30 06:26:47;;;;;;;1.80;1.10;;;12.20;75.80;;;;;;5094851;28;20074;-79
2021/05/30 06:29:13;;;;;;;1.73;1.10;;;12.20;75.50;;;;;;5061467;28;20078;-80
2021/05/30 06:31:39;;;;;;;2.42;1.30;;;12.30;75.50;;;;;;5094892;28;20044;-80
2021/05/30 06:34:04;;;;;;;1.30;1.00;;;12.40;75.40;;;;;;5077770;28;20052;-79
2021/05/30 06:36:30;;;;;;;2.05;1.15;;;12.60;75.30;;;;;;5095412;28;20031;-78
2021/05/30 06:38:56;;;;;;;1.50;0.95;;;12.70;75.10;;;;;;5094304;28;20343;-80
2021/05/30 06:41:22;;;;;;;1.25;1.10;;;12.80;74.90;;;;;;5094288;28;20043;-79
2021/05/30 06:43:51;;;;;;;1.48;1.10;;;13.00;74.80;;;;;;5095981;28;20490;-80
2021/05/30 06:46:17;;;;;;;1.70;1.20;;;13.10;74.60;;;;;;5076958;28;20044;-79
2021/05/30 06:48:42;;;;;;;0.98;0.80;;;13.10;74.30;;;;;;5077973;28;20047;-79
2021/05/30 06:51:16;;;;;;;1.13;0.80;;;13.20;74.20;;;;;;5094469;28;20042;-79
2021/05/30 06:53:46;;;;;;;1.23;0.98;;;13.40;74.00;;;;;;5114665;28;20048;-79
2021/05/30 06:56:12;;;;;;;3.10;1.48;;;13.50;74.60;;;;;;5079141;28;20032;-78
2021/05/30 06:58:39;;;;;;;1.05;0.93;;;13.60;73.90;;;;;;5113574;28;20032;-79
2021/05/30 07:01:05;;;;;;;2.92;1.25;;;13.80;73.80;;;;;;5081000;28;20082;-79
2021/05/30 07:03:31;;;;;;;1.85;1.20;;;13.90;73.70;;;;;;5080920;28;20039;-79
2021/05/30 07:05:58;;;;;;;1.05;0.95;;;14.10;73.70;;;;;;5116725;28;20119;-80
2021/05/30 07:08:24;;;;;;;1.15;0.98;;;14.30;73.60;;;;;;5064854;28;20039;-81
2021/05/30 07:10:50;;;;;;;1.45;1.08;;;14.50;73.40;;;;;;5098018;28;20031;-79
2021/05/30 07:13:16;;;;;;;1.33;1.10;;;14.70;73.10;;;;;;5080890;28;20035;-80
2021/05/30 07:15:41;;;;;;;1.52;1.17;;;14.90;72.80;;;;;;5098062;28;20059;-80
2021/05/30 07:18:07;;;;;;;1.48;1.00;;;15.10;72.60;;;;;;5098372;28;20492;-80
2021/05/30 07:20:33;;;;;;;1.25;0.95;;;15.10;72.50;;;;;;5081033;28;20562;-80
2021/05/30 07:22:58;;;;;;;1.40;1.00;;;15.50;72.50;;;;;;5098312;28;20036;-80
2021/05/30 07:25:24;;;;;;;1.63;1.13;;;15.60;72.30;;;;;;5116530;28;20524;-81
2021/05/30 07:27:51;;;;;;;1.13;1.02;;;15.70;72.20;;;;;;5116199;28;20180;-80
2021/05/30 07:30:18;;;;;;;1.42;1.02;;;15.90;72.30;;;;;;5097372;28;20039;-80
2021/05/30 07:32:44;;;;;;;1.13;0.98;;;16.00;72.00;;;;;;5080578;28;20134;-79
2021/05/30 07:35:10;;;;;;;1.70;1.10;;;16.10;71.90;;;;;;5063654;28;20450;-80
2021/05/30 07:37:36;;;;;;;1.42;1.10;;;16.30;71.90;;;;;;5115775;28;20036;-80
2021/05/30 07:40:02;;;;;;;1.27;1.15;;;16.50;71.90;;;;;;5080410;28;20071;-80
2021/05/30 07:42:27;;;;;;;1.17;1.00;;;16.70;71.80;;;;;;5097208;28;20031;-80
2021/05/30 07:44:53;;;;;;;1.38;1.15;;;16.80;71.60;;;;;;5097476;28;20050;-79
2021/05/30 07:47:19;;;;;;;1.42;0.95;;;16.90;71.40;;;;;;5097361;28;20401;-80
2021/05/30 07:49:44;;;;;;;1.70;1.08;;;17.10;71.40;;;;;;5079620;28;20042;-80
2021/05/30 07:52:10;;;;;;;1.20;1.10;;;17.30;71.30;;;;;;5063591;28;20043;-80
2021/05/30 07:54:36;;;;;;;0.90;0.88;;;17.50;71.20;;;;;;5115458;28;20032;-80
2021/05/30 07:57:02;;;;;;;2.10;1.35;;;17.70;71.00;;;;;;5097230;28;20054;-80
2021/05/30 07:59:27;;;;;;;0.82;0.80;;;17.90;70.90;;;;;;5081947;28;20122;-80
2021/05/30 08:01:58;;;;;;;1.77;1.25;;;18.10;70.80;;;;;;5065048;28;20106;-80
2021/05/30 08:04:23;;;;;;;2.05;1.00;;;18.00;70.60;;;;;;5072096;28;20031;-79
2021/05/30 08:06:49;;;;;;;1.10;0.93;;;18.40;70.50;;;;;;5089662;28;20044;-79
2021/05/30 08:09:15;;;;;;;1.10;1.00;;;18.60;70.30;;;;;;5101673;28;20047;-79
2021/05/30 08:11:40;;;;;;;1.10;0.95;;;18.80;70.30;;;;;;5089654;28;20039;-78
2021/05/30 08:14:13;;;;;;;1.80;1.30;;;18.90;70.10;;;;;;5086296;28;20039;-82
2021/05/30 08:16:40;;;;;;;0.90;0.90;;;19.10;70.00;;;;;;5080708;28;20097;-78
2021/05/30 08:19:07;;;;;;;1.10;0.90;;;19.30;69.80;;;;;;5099778;28;20040;-79
2021/05/30 08:21:32;;;;;;;1.10;1.00;;;19.50;69.60;;;;;;5106339;28;20051;-80
2021/05/30 08:23:58;;;;;;;1.42;1.13;;;19.60;69.50;;;;;;5120460;28;20036;-79
2021/05/30 08:26:24;;;;;;;1.50;1.00;;;19.80;69.40;;;;;;5104968;28;20047;-80
2021/05/30 08:28:50;;;;;;;1.00;0.90;;;19.90;69.20;;;;;;5098403;28;20044;-80
2021/05/30 08:31:16;;;;;;;1.80;1.23;;;20.10;69.20;;;;;;5084040;28;20480;-76
2021/05/30 08:33:42;;;;;;;1.30;1.00;;;20.20;69.30;;;;;;5098964;28;20042;-77
2021/05/30 08:36:07;;;;;;;1.05;0.95;;;20.10;69.20;;;;;;5121749;28;20039;-76
2021/05/30 08:38:34;;;;;;;1.10;1.00;;;20.20;69.30;;;;;;5069509;28;20039;-78
2021/05/30 08:40:59;;;;;;;1.00;0.90;;;20.30;69.20;;;;;;5084918;28;20054;-79
2021/05/30 08:43:27;;;;;;;0.82;0.80;;;20.50;69.20;;;;;;5101391;28;20036;-77
2021/05/30 08:45:53;;;;;;;1.55;1.10;;;20.70;68.90;;;;;;5098889;28;20059;-78
2021/05/30 08:48:19;;;;;;;1.55;0.95;;;21.00;68.70;;;;;;5098057;28;20040;-79
2021/05/30 08:51:01;;;;;;;1.13;0.90;;;21.00;68.50;;;;;;5115064;28;20127;-77
2021/05/30 08:53:28;;;;;;;2.58;1.23;;;21.00;68.70;;;;;;5100661;28;20103;-77
2021/05/30 08:55:54;;;;;;;0.75;0.75;;;21.00;68.70;;;;;;5098973;28;20135;-76
2021/05/30 08:58:19;;;;;;;1.20;1.10;;;21.10;68.60;;;;;;5116296;28;20075;-79
2021/05/30 09:00:49;;;;;;;0.93;0.90;;;21.30;68.70;;;;;;5082724;28;20039;-80
2021/05/30 09:03:16;;;;;;;2.10;1.38;;;21.40;68.50;;;;;;5080863;28;20094;-78
2021/05/30 09:05:42;;;;;;;1.70;1.33;;;21.50;68.30;;;;;;5096458;28;20131;-77
2021/05/30 09:08:09;;;;;;;1.10;0.85;;;21.60;68.20;;;;;;5114651;28;20074;-75
2021/05/30 09:10:35;;;;;;;1.00;0.90;;;21.60;68.30;;;;;;5079089;28;20038;-77
2021/05/30 09:13:15;;;;;;;1.00;0.90;;;21.90;68.20;;;;;;5062692;28;20066;-77
2021/05/30 09:15:53;;;;;;;0.60;0.60;;;22.00;68.00;;;;;;5114324;28;20048;-77
2021/05/30 09:18:26;;;;;;;0.88;0.80;;;22.20;67.70;;;;;;5101721;28;20074;-77
2021/05/30 09:20:58;;;;;;;0.95;0.85;;;22.20;67.50;;;;;;5095671;28;20039;-78
2021/05/30 09:23:30;;;;;;;1.92;1.10;;;22.40;67.40;;;;;;5095929;28;20036;-76
2021/05/30 09:26:25;;;;;;;1.33;1.20;;;22.60;67.00;;;;;;5081813;28;20046;-76
2021/05/30 09:29:08;;;;;;;1.77;1.10;;;22.40;67.00;;;;;;5120065;28;20043;-78
2021/05/30 09:31:52;;;;;;;1.15;1.08;;;22.40;67.50;;;;;;5119114;28;20050;-79
2021/05/30 09:34:28;;;;;;;1.08;0.82;;;22.60;67.40;;;;;;5086822;28;20050;-76
2021/05/30 09:37:01;;;;;;;1.10;1.00;;;22.70;66.90;;;;;;5098168;28;20040;-80
2021/05/30 09:39:41;;;;;;;1.00;0.90;;;22.80;66.70;;;;;;5088730;28;20035;-77
2021/05/30 09:42:25;;;;;;;1.17;1.08;;;22.80;66.50;;;;;;5097919;28;20039;-81
2021/05/30 09:45:11;;;;;;;1.10;1.00;;;22.80;66.80;;;;;;5114447;28;20118;-78
2021/05/30 09:47:45;;;;;;;0.88;0.88;;;22.80;66.60;;;;;;5082518;28;20512;-79
2021/05/30 09:50:14;;;;;;;1.05;0.95;;;23.00;66.80;;;;;;5094611;28;20040;-78
2021/05/30 09:52:47;;;;;;;3.08;1.63;;;23.10;66.30;;;;;;5095944;28;20504;-76
2021/05/30 09:55:17;;;;;;;1.30;1.20;;;23.10;65.80;;;;;;5114330;28;20071;-76
2021/05/30 09:58:05;;;;;;;1.03;0.70;;;22.90;66.10;;;;;;5122747;28;20040;-77
2021/05/30 10:00:32;;;;;;;0.95;0.93;;;22.80;66.70;;;;;;5121304;28;20046;-80
2021/05/30 10:02:58;;;;;;;1.10;1.00;;;22.90;66.80;;;;;;5086208;28;20063;-76
2021/05/30 10:05:23;;;;;;;1.13;1.00;;;23.10;66.30;;;;;;5101706;28;20039;-78
2021/05/30 10:07:52;;;;;;;1.70;1.10;;;23.20;65.90;;;;;;5095036;28;20035;-77
2021/05/30 10:10:18;;;;;;;1.00;0.90;;;23.20;65.70;;;;;;5098925;28;20485;-79
2021/05/30 10:12:44;;;;;;;1.15;1.05;;;23.20;65.80;;;;;;5093693;28;20045;-77
2021/05/30 10:15:11;;;;;;;1.15;1.00;;;23.20;65.60;;;;;;5102804;28;20039;-78
2021/05/30 10:17:39;;;;;;;1.15;1.05;;;23.30;65.60;;;;;;5104737;28;20036;-79
2021/05/30 10:20:09;;;;;;;0.85;0.85;;;23.40;65.30;;;;;;5085480;28;20039;-75
2021/05/30 10:22:36;;;;;;;0.98;0.80;;;23.50;65.10;;;;;;5036167;28;20106;-76
2021/05/30 10:25:03;;;;;;;0.82;0.82;;;23.40;64.90;;;;;;5063981;28;20059;-76
2021/05/30 10:27:30;;;;;;;0.90;0.90;;;23.40;65.00;;;;;;5038613;28;20048;-75
2021/05/30 10:30:16;;;;;;;1.20;1.10;;;23.40;65.00;;;;;;5060757;28;20057;-78
2021/05/30 10:32:47;;;;;;;1.10;0.90;;;23.50;64.70;;;;;;5027438;28;20041;-77
2021/05/30 10:35:25;;;;;;;0.98;0.93;;;23.50;64.60;;;;;;5043622;28;20081;-78
2021/05/30 10:37:53;;;;;;;0.80;0.80;;;23.60;64.60;;;;;;5057554;28;20045;-76
2021/05/30 10:40:27;;;;;;;0.77;0.77;;;23.70;64.40;;;;;;5002654;28;20131;-78
2021/05/30 10:43:15;;;;;;;0.70;0.60;;;23.70;64.10;;;;;;5025554;28;20111;-76
2021/05/30 10:46:00;;;;;;;0.50;0.50;;;23.90;63.90;;;;;;5035744;28;21260;-76
2021/05/30 10:48:26;;;;;;;0.52;0.52;;;23.90;63.90;;;;;;5020535;28;20147;-77
2021/05/30 10:53:46;;;;;;;0.50;0.50;;;24.00;63.30;;;;;;5065674;28;20032;-79
2021/05/30 10:56:16;;;;;;;0.55;0.55;;;23.90;63.30;;;;;;5082715;28;20040;-78
2021/05/30 10:58:43;;;;;;;0.70;0.70;;;23.90;63.30;;;;;;5078192;28;20071;-76
2021/05/30 11:01:42;;;;;;;1.00;0.77;;;23.90;63.90;;;;;;5058417;28;20474;-76
2021/05/30 11:04:29;;;;;;;0.70;0.70;;;23.90;63.00;;;;;;5079587;28;20079;-80
2021/05/30 11:07:00;;;;;;;0.40;0.40;;;24.00;62.90;;;;;;5075401;28;20044;-81
2021/05/30 11:09:58;;;;;;;0.50;0.50;;;24.10;62.70;;;;;;5062231;28;20051;-80
2021/05/30 11:12:30;;;;;;;0.60;0.60;;;24.20;62.30;;;;;;5059926;28;20070;-81
2021/05/30 11:15:23;;;;;;;0.50;0.50;;;24.30;62.10;;;;;;5041886;28;20397;-80
2021/05/30 11:17:54;;;;;;;0.52;0.50;;;24.10;62.10;;;;;;5076483;28;20509;-80
2021/05/30 11:20:37;;;;;;;0.60;0.60;;;24.30;61.90;;;;;;5045150;28;20033;-79
2021/05/30 11:23:05;;;;;;;0.45;0.45;;;24.30;61.60;;;;;;5036106;28;20144;-79
2021/05/30 11:25:35;;;;;;;0.60;0.60;;;24.30;61.70;;;;;;5002330;28;20048;-79
2021/05/30 11:28:07;;;;;;;0.70;0.70;;;24.20;61.40;;;;;;5054916;28;20139;-79
2021/05/30 11:30:37;;;;;;;0.77;0.60;;;24.30;61.10;;;;;;5057323;28;20056;-77
2021/05/30 11:33:04;;;;;;;0.63;0.55;;;24.30;61.10;;;;;;5046161;28;20044;-78
2021/05/30 11:35:30;;;;;;;0.60;0.60;;;24.30;61.00;;;;;;5045172;28;20045;-78
2021/05/30 11:37:57;;;;;;;0.50;0.50;;;24.30;60.90;;;;;;5028527;28;20049;-79
2021/05/30 11:40:23;;;;;;;0.70;0.60;;;24.30;60.60;;;;;;5053871;28;20049;-75
2021/05/30 11:42:50;;;;;;;0.47;0.47;;;24.30;60.60;;;;;;5054665;28;20048;-75
2021/05/30 11:45:33;;;;;;;0.60;0.60;;;24.40;60.50;;;;;;5035009;28;20033;-75
2021/05/30 11:48:05;;;;;;;0.50;0.50;;;24.30;60.30;;;;;;5042962;28;20067;-77
2021/05/30 11:50:33;;;;;;;0.70;0.70;;;24.10;60.50;;;;;;5044845;28;20051;-78
2021/05/30 11:53:04;;;;;;;0.70;0.70;;;24.20;60.50;;;;;;5061907;28;20036;-77
2021/05/30 11:55:30;;;;;;;0.50;0.50;;;24.20;60.40;;;;;;5059721;28;20398;-78
2021/05/30 11:57:56;;;;;;;0.52;0.52;;;24.10;60.40;;;;;;5095195;28;20118;-76
2021/05/30 12:00:25;;;;;;;1.25;0.85;;;24.10;60.30;;;;;;5077363;28;20032;-78
2021/05/30 12:02:53;;;;;;;0.50;0.50;;;24.10;60.30;;;;;;5075287;28;20032;-77
2021/05/30 12:05:19;;;;;;;0.57;0.57;;;24.10;60.20;;;;;;5077807;28;20035;-76
2021/05/30 12:07:45;;;;;;;0.50;0.50;;;24.10;59.90;;;;;;5094285;28;20047;-77
2021/05/30 12:10:13;;;;;;;0.52;0.40;;;24.10;59.90;;;;;;5042199;28;20040;-76
2021/05/30 12:12:44;;;;;;;0.50;0.50;;;24.10;59.70;;;;;;5075769;28;20045;-77
2021/05/30 12:15:18;;;;;;;0.73;0.73;;;24.10;59.70;;;;;;5094955;28;20044;-76
2021/05/30 12:18:04;;;;;;;0.80;0.60;;;24.10;59.60;;;;;;5076066;28;20119;-79
2021/05/30 12:20:33;;;;;;;0.40;0.40;;;24.00;59.60;;;;;;5045856;28;20382;-77
2021/05/30 12:23:09;;;;;;;0.70;0.70;;;24.00;59.60;;;;;;5076599;28;20043;-77
2021/05/30 12:25:35;;;;;;;0.47;0.47;;;24.00;59.50;;;;;;5095285;28;20428;-77
2021/05/30 12:28:01;;;;;;;0.70;0.70;;;23.90;59.50;;;;;;5094343;28;20042;-77
2021/05/30 12:30:27;;;;;;;0.60;0.60;;;23.90;59.40;;;;;;5058896;28;20048;-77
2021/05/30 12:32:53;;;;;;;0.70;0.70;;;23.90;59.30;;;;;;5059885;28;20103;-77
2021/05/30 12:35:43;;;;;;;0.70;0.70;;;24.00;59.30;;;;;;5059737;28;20036;-77
2021/05/30 12:38:14;;;;;;;0.57;0.57;;;24.00;59.00;;;;;;5058356;28;20043;-76
2021/05/30 12:40:41;;;;;;;;;;;23.90;59.00;;;;;;5077337;28;20409;-78
2021/05/30 12:43:07;;;;;;;0.40;0.40;;;23.80;59.20;;;;;;5084493;28;19919;-76
2021/05/30 12:45:32;;;;;;;0.63;0.63;;;23.80;59.30;;;;;;5090792;28;20036;-78
2021/05/30 12:47:59;;;;;;;0.60;0.60;;;23.80;59.20;;;;;;5105929;28;20040;-78
2021/05/30 12:50:24;;;;;;;0.60;0.60;;;23.70;59.00;;;;;;5093222;28;20036;-78
2021/05/30 12:52:53;;;;;;;0.52;0.52;;;23.70;59.00;;;;;;5066413;28;20047;-78
2021/05/30 12:55:24;;;;;;;0.65;0.65;;;23.70;58.70;;;;;;5053469;28;20136;-79
2021/05/30 12:57:52;;;;;;;;;;;23.70;58.60;;;;;;5065998;28;20043;-79